Uniontown, PA (15401)

6:54 PM EST on February 13, 2016 (GMT -0500)
Nick's Weather | | Change Station
CLOSE
Current Station
Personal Weather Station
Location: Uniontown, PA
Elevation: 1060 ft
Nearby Weather Stations
Active Advisory: Wind Chill Advisory

Elev 1060 ft 39.90 °N, 79.74 °W | Updated 16 seconds ago

Mostly Cloudy
Mostly Cloudy
8.4 °F
Feels Like 8 °F
N
1.0
Wind Variable Wind from West
Gusts 4.0 mph

Today
High -- | Low -- °F
--% Chance of Precip.
Yesterday
High -- | Low -- °F
Precip. -- in
Pressure 30.17 in
Visibility 10.0 miles
Clouds Scattered Clouds 4700 ft
Windchill 8 °F
Dew Point -3 °F
Humidity 58%
Rainfall 0.00 in
Snow Depth Not available.
7:14 AM 5:52 PM
Waxing Crescent, 35% visible
METAR K2G4 132345Z AUTO 29007G20KT 10SM SCT047 M17/M22 A3017 RMK AO1
Pressure 30.17 in
Visibility 10.0 miles
Clouds Scattered Clouds 4700 ft
Windchill 8 °F
Dew Point -3 °F
Humidity 58%
Rainfall 0.00 in
Snow Depth Not available.
7:14 AM 5:52 PM
Waxing Crescent, 35% visible
METAR K2G4 132345Z AUTO 29007G20KT 10SM SCT047 M17/M22 A3017 RMK AO1

10-Day Weather Forecast

Almanac

Astronomy

Feb. 13, 2016 Rise Set
Actual Time
Civil Twilight
Nautical Twilight
Astronomical Twilight
Moon
Length of Visible Light
Length of Day
Tomorrow will be .
, % of the Moon is Illuminated

Today's Extremes

State Highs State Lows

Community

WunderPhotos

Upload Photos

1,892,705 photos uploaded!

WunderBlog® & News

Nearby

Air Quality

  Air Quality AQ Index Pollutant
Not available.

Snow Depth

Station Depth Elevation

Earthquake Activity

City Distance Mag. Time & Date
Minimum magnitude displayed is 2.5.

Coastal Water Temperatures

Place Temperature

Stations

Nearby Weather Stations

Station Location Temp. Windchill Dew Point Humidity Wind Precip. Elev Updated Type
                   

Watches & Warnings

Wind Chill Advisory
Issued: 6:03 PM EST Feb. 13, 2016 – National Weather Service

... Wind Chill Advisory remains in effect until 9 am EST Sunday...

* wind chill... as low as 14 below. Temperature 4 below to 12 above
zero... and west wind 10 to 15 mph.

* Impact... frost bite and hypothermia are likely if precautions
are not taken.

Precautionary/preparedness actions...

A Wind Chill Advisory means that very cold air and strong wind will
combine to generate low wind chill indices. Make sure you dress
appropriately.